Time;durP1;ratioP1;P1;durP2;ratioP2;P2;SDS_P1;SDS_P2;PMS_P1;PMS_P2;Temp;Humidity;BMP_temperature;BMP_pressure;BME280_temperature;BME280_humidity;BME280_pressure;Samples;Min_cycle;Max_cycle;Signal;HPM_P1;HPM_P2
2023/04/06 00:01:31;;;;;;;3.42;1.83;;;23.50;43.20;;;;;;5041883;28;20040;-62
2023/04/06 00:03:57;;;;;;;2.75;1.58;;;23.40;43.10;;;;;;5041328;28;20457;-62
2023/04/06 00:06:22;;;;;;;3.08;1.50;;;23.40;43.10;;;;;;5041320;28;20029;-62
2023/04/06 00:08:48;;;;;;;3.97;2.00;;;23.40;43.10;;;;;;5040196;28;20068;-62
2023/04/06 00:11:14;;;;;;;3.97;1.75;;;23.40;43.10;;;;;;5042204;28;20032;-62
2023/04/06 00:13:40;;;;;;;2.80;1.63;;;23.30;43.10;;;;;;5039453;28;20128;-62
2023/04/06 00:16:06;;;;;;;3.58;1.83;;;23.40;43.10;;;;;;5038505;28;20021;-62
2023/04/06 00:18:31;;;;;;;3.30;1.55;;;23.30;43.10;;;;;;5042706;28;20113;-61
2023/04/06 00:20:57;;;;;;;2.97;1.70;;;23.30;43.10;;;;;;5040526;28;20104;-62
2023/04/06 00:23:23;;;;;;;3.38;1.80;;;23.20;43.00;;;;;;5038690;28;20465;-62
2023/04/06 00:25:48;;;;;;;4.05;2.10;;;23.20;43.10;;;;;;5036867;28;20090;-61
2023/04/06 00:28:14;;;;;;;3.70;1.50;;;23.20;43.10;;;;;;5042572;28;20036;-62
2023/04/06 00:30:40;;;;;;;2.35;1.40;;;23.20;43.00;;;;;;5039629;28;20045;-62
2023/04/06 00:33:06;;;;;;;2.78;1.80;;;23.20;43.00;;;;;;5039697;28;20036;-62
2023/04/06 00:35:32;;;;;;;3.33;1.58;;;23.10;43.00;;;;;;5036097;28;20029;-62
2023/04/06 00:37:58;;;;;;;2.90;1.80;;;23.20;43.10;;;;;;5040658;28;20067;-62
2023/04/06 00:40:23;;;;;;;2.70;1.70;;;23.10;43.10;;;;;;5041638;28;20029;-62
2023/04/06 00:42:49;;;;;;;3.90;1.55;;;23.10;43.00;;;;;;5041309;28;20056;-61
2023/04/06 00:45:15;;;;;;;2.78;1.45;;;23.00;43.10;;;;;;5042623;28;20028;-63
2023/04/06 00:47:41;;;;;;;3.10;1.50;;;23.00;43.10;;;;;;5039356;28;20034;-62
2023/04/06 00:50:07;;;;;;;3.90;1.73;;;23.00;43.10;;;;;;5041992;28;20489;-62
2023/04/06 00:52:34;;;;;;;3.05;1.60;;;23.00;43.20;;;;;;5037938;28;20056;-62
2023/04/06 00:55:00;;;;;;;2.72;1.40;;;23.00;43.10;;;;;;5040764;28;20029;-62
2023/04/06 00:57:25;;;;;;;2.53;1.48;;;22.90;43.60;;;;;;5041663;28;20393;-61
2023/04/06 00:59:52;;;;;;;2.40;1.48;;;22.90;43.10;;;;;;5040066;28;20436;-62
2023/04/06 01:02:18;;;;;;;3.22;1.30;;;22.90;43.20;;;;;;5040195;28;20485;-62
2023/04/06 01:04:44;;;;;;;3.25;1.85;;;22.90;43.20;;;;;;5041175;28;20031;-62
2023/04/06 01:07:10;;;;;;;3.38;1.40;;;22.80;43.10;;;;;;5040711;28;20021;-62
2023/04/06 01:09:35;;;;;;;2.58;1.50;;;22.80;43.10;;;;;;5038946;28;20033;-62
2023/04/06 01:12:02;;;;;;;3.30;1.50;;;22.80;43.20;;;;;;5041390;28;20033;-62
2023/04/06 01:14:27;;;;;;;3.58;1.58;;;22.70;43.20;;;;;;5039976;28;20033;-62
2023/04/06 01:16:53;;;;;;;2.30;1.27;;;22.70;43.30;;;;;;5037658;28;20519;-62
2023/04/06 01:19:20;;;;;;;1.90;1.00;;;22.70;43.20;;;;;;5037698;28;20025;-62
2023/04/06 01:21:46;;;;;;;2.42;1.20;;;22.70;43.20;;;;;;5041659;28;20603;-62
2023/04/06 01:24:12;;;;;;;2.17;1.15;;;22.70;43.30;;;;;;5040365;28;20045;-61
2023/04/06 01:26:40;;;;;;;2.67;1.30;;;22.60;43.20;;;;;;5041216;28;20115;-62
2023/04/06 01:29:05;;;;;;;2.90;1.42;;;22.60;43.80;;;;;;5039387;28;20479;-62
2023/04/06 01:31:31;;;;;;;2.08;1.33;;;22.60;43.30;;;;;;5039940;28;20033;-62
2023/04/06 01:33:57;;;;;;;2.45;1.40;;;22.60;43.30;;;;;;5039951;28;20477;-62
2023/04/06 01:36:23;;;;;;;2.47;1.40;;;22.60;43.20;;;;;;5034614;28;20453;-62
2023/04/06 01:38:48;;;;;;;2.08;1.20;;;22.50;43.20;;;;;;5035952;28;20045;-62
2023/04/06 01:41:14;;;;;;;2.90;1.25;;;22.50;43.20;;;;;;5041494;28;20091;-62
2023/04/06 01:43:39;;;;;;;2.85;1.50;;;22.50;43.30;;;;;;5041075;28;20033;-62
2023/04/06 01:46:05;;;;;;;2.13;1.20;;;22.50;43.30;;;;;;5035588;28;20056;-62
2023/04/06 01:48:31;;;;;;;2.47;1.30;;;22.50;43.50;;;;;;5037727;28;20065;-62
2023/04/06 01:50:57;;;;;;;2.33;1.17;;;22.50;43.30;;;;;;5039387;28;20044;-62
2023/04/06 01:53:22;;;;;;;2.10;1.30;;;22.50;43.30;;;;;;5036520;28;20025;-62
2023/04/06 01:55:48;;;;;;;2.25;1.40;;;22.40;43.30;;;;;;5041136;28;20033;-62
2023/04/06 01:58:14;;;;;;;2.28;1.20;;;22.40;43.30;;;;;;5037097;28;20068;-62
2023/04/06 02:00:40;;;;;;;2.45;1.40;;;22.40;43.40;;;;;;5041502;28;20523;-62
2023/04/06 02:03:06;;;;;;;2.58;1.33;;;22.40;43.30;;;;;;5039062;28;20212;-62
2023/04/06 02:05:37;;;;;;;2.20;1.27;;;22.30;43.30;;;;;;5040153;28;20051;-62
2023/04/06 02:08:05;;;;;;;1.85;1.10;;;22.30;43.30;;;;;;5040964;28;20029;-62
2023/04/06 02:10:31;;;;;;;2.42;1.10;;;22.30;43.30;;;;;;5036850;28;20159;-62
2023/04/06 02:12:57;;;;;;;1.75;1.10;;;22.30;43.30;;;;;;5039075;28;20121;-62
2023/04/06 02:15:22;;;;;;;2.92;1.50;;;22.30;43.30;;;;;;5039128;28;20101;-62
2023/04/06 02:17:48;;;;;;;2.20;1.17;;;22.30;43.40;;;;;;5041016;28;20036;-62
2023/04/06 02:20:14;;;;;;;2.08;1.30;;;22.30;43.40;;;;;;5038164;28;20029;-62
2023/04/06 02:22:39;;;;;;;1.95;1.25;;;22.30;43.40;;;;;;5037282;28;20028;-63
2023/04/06 02:25:06;;;;;;;2.42;1.30;;;22.30;43.40;;;;;;5034245;28;20116;-62
2023/04/06 02:27:31;;;;;;;2.00;1.10;;;22.30;43.40;;;;;;5038067;28;20079;-62
2023/04/06 02:29:57;;;;;;;2.25;1.40;;;22.20;43.40;;;;;;5040003;28;20124;-62
2023/04/06 02:32:22;;;;;;;2.20;1.40;;;22.20;43.40;;;;;;5039742;28;20083;-62
2023/04/06 02:34:48;;;;;;;1.55;1.10;;;22.20;43.40;;;;;;5038349;28;20037;-62
2023/04/06 02:37:14;;;;;;;2.03;1.42;;;22.20;43.40;;;;;;5037839;28;20021;-62
2023/04/06 02:39:40;;;;;;;1.23;1.00;;;22.20;43.40;;;;;;5038052;28;20069;-62
2023/04/06 02:42:06;;;;;;;2.22;1.20;;;22.20;43.40;;;;;;5036684;28;20401;-62
2023/04/06 02:44:31;;;;;;;1.92;1.20;;;22.20;43.40;;;;;;5042478;28;20026;-62
2023/04/06 02:46:57;;;;;;;1.60;1.00;;;22.20;43.40;;;;;;5038484;28;20060;-62
2023/04/06 02:49:23;;;;;;;2.13;1.10;;;22.10;43.40;;;;;;5037593;28;20500;-62
2023/04/06 02:51:48;;;;;;;2.85;1.27;;;22.20;43.50;;;;;;5036672;28;20062;-62
2023/04/06 02:54:14;;;;;;;1.95;1.20;;;22.10;43.40;;;;;;5038120;28;20021;-62
2023/04/06 02:56:39;;;;;;;2.65;1.40;;;22.10;43.40;;;;;;5041658;28;20116;-62
2023/04/06 02:59:05;;;;;;;1.85;1.20;;;22.10;43.40;;;;;;5042904;28;20047;-62
2023/04/06 03:01:31;;;;;;;2.30;1.13;;;22.10;43.50;;;;;;5041341;28;20516;-62
2023/04/06 03:03:56;;;;;;;1.73;1.10;;;22.10;43.50;;;;;;5041665;28;20032;-62
2023/04/06 03:06:22;;;;;;;2.08;1.02;;;22.10;43.50;;;;;;5040776;28;20029;-62
2023/04/06 03:08:48;;;;;;;1.60;1.00;;;22.10;43.50;;;;;;5039114;28;20382;-62
2023/04/06 03:11:13;;;;;;;1.50;0.90;;;22.00;43.40;;;;;;5044368;28;20465;-62
2023/04/06 03:13:39;;;;;;;1.73;1.00;;;22.00;43.40;;;;;;5042758;28;20084;-62
2023/04/06 03:16:05;;;;;;;2.00;1.10;;;22.00;43.40;;;;;;5041771;28;20037;-62
2023/04/06 03:18:32;;;;;;;2.22;1.25;;;22.00;43.40;;;;;;5039752;28;20034;-62
2023/04/06 03:20:57;;;;;;;1.63;1.00;;;22.00;43.50;;;;;;5042252;28;20404;-62
2023/04/06 03:23:23;;;;;;;1.65;0.95;;;22.00;43.50;;;;;;5042028;28;20021;-62
2023/04/06 03:25:49;;;;;;;2.55;1.17;;;22.00;43.50;;;;;;5041993;28;20384;-62
2023/04/06 03:28:15;;;;;;;2.00;1.13;;;22.00;43.50;;;;;;5040735;28;20041;-59
2023/04/06 03:30:41;;;;;;;1.50;1.10;;;22.00;43.50;;;;;;5043977;28;20586;-61
2023/04/06 03:33:07;;;;;;;1.60;1.00;;;22.00;43.50;;;;;;5042504;28;20025;-62
2023/04/06 03:35:32;;;;;;;2.00;1.17;;;21.90;43.50;;;;;;5039416;28;20075;-62
2023/04/06 03:37:58;;;;;;;1.65;1.10;;;21.90;44.00;;;;;;5043108;28;20042;-63
2023/04/06 03:40:24;;;;;;;1.05;0.88;;;21.90;44.00;;;;;;5039034;28;20059;-62
2023/04/06 03:42:50;;;;;;;1.38;0.90;;;21.90;43.50;;;;;;5042270;28;20049;-62
2023/04/06 03:45:16;;;;;;;1.63;1.00;;;21.90;43.50;;;;;;5040819;28;20385;-62
2023/04/06 03:47:42;;;;;;;1.30;0.90;;;21.90;43.50;;;;;;5040016;28;20025;-62
2023/04/06 03:50:08;;;;;;;1.75;1.05;;;21.90;43.60;;;;;;5040977;28;20445;-62
2023/04/06 03:52:34;;;;;;;1.85;0.90;;;21.90;43.60;;;;;;5042336;28;20052;-62
2023/04/06 03:55:00;;;;;;;1.75;1.10;;;21.90;43.60;;;;;;5038450;28;20500;-62
2023/04/06 03:57:25;;;;;;;1.35;0.90;;;21.80;43.50;;;;;;5042280;28;20021;-62
2023/04/06 03:59:51;;;;;;;1.40;1.00;;;21.80;43.60;;;;;;5039279;28;20485;-62
2023/04/06 04:02:16;;;;;;;1.63;1.00;;;21.80;43.60;;;;;;5042140;28;20021;-62
2023/04/06 04:04:42;;;;;;;1.77;1.15;;;21.80;43.60;;;;;;5041685;28;20466;-62
2023/04/06 04:07:07;;;;;;;1.40;1.00;;;21.80;43.60;;;;;;5040778;28;20033;-62
2023/04/06 04:09:33;;;;;;;1.08;0.82;;;21.80;43.60;;;;;;5040997;28;20033;-62
2023/04/06 04:11:59;;;;;;;1.50;1.10;;;21.70;43.60;;;;;;5042260;28;20028;-61
2023/04/06 04:14:25;;;;;;;1.50;0.90;;;21.70;43.60;;;;;;5041035;28;20033;-62
2023/04/06 04:16:51;;;;;;;1.27;0.90;;;21.70;43.60;;;;;;5044506;28;20388;-61
2023/04/06 04:19:16;;;;;;;1.80;0.95;;;21.70;43.60;;;;;;5039948;28;20030;-62
2023/04/06 04:21:46;;;;;;;1.70;1.00;;;21.70;43.60;;;;;;5039466;28;20040;-62
2023/04/06 04:24:13;;;;;;;1.63;1.00;;;21.70;43.60;;;;;;5038826;28;20045;-61
2023/04/06 04:26:40;;;;;;;1.95;1.00;;;21.70;43.70;;;;;;5038677;28;20160;-61
2023/04/06 04:29:06;;;;;;;1.65;1.00;;;21.70;43.70;;;;;;5042011;28;20131;-62
2023/04/06 04:31:32;;;;;;;1.92;1.00;;;21.70;43.60;;;;;;5040526;28;20125;-62
2023/04/06 04:34:00;;;;;;;1.70;1.00;;;21.70;43.70;;;;;;5040531;28;20048;-62
2023/04/06 04:36:26;;;;;;;1.50;0.93;;;21.70;43.70;;;;;;5040968;28;20393;-62
2023/04/06 04:38:52;;;;;;;1.58;1.08;;;21.70;43.70;;;;;;5041232;28;20045;-62
2023/04/06 04:41:18;;;;;;;2.47;1.00;;;21.70;43.70;;;;;;5041208;28;20033;-62
2023/04/06 04:43:44;;;;;;;1.42;0.98;;;21.70;43.70;;;;;;5041319;28;20385;-62
2023/04/06 04:46:10;;;;;;;1.73;1.02;;;21.60;43.70;;;;;;5041017;28;20021;-62
2023/04/06 04:48:35;;;;;;;1.58;0.88;;;21.60;43.70;;;;;;5041626;28;20215;-62
2023/04/06 04:51:01;;;;;;;1.10;0.80;;;21.60;43.70;;;;;;5038653;28;20124;-62
2023/04/06 04:53:27;;;;;;;1.48;0.93;;;21.60;43.70;;;;;;5039359;28;20389;-61
2023/04/06 04:55:52;;;;;;;1.13;0.82;;;21.60;43.80;;;;;;5040477;28;20037;-62
2023/04/06 04:58:19;;;;;;;1.40;1.00;;;21.60;43.80;;;;;;5039452;28;20033;-62
2023/04/06 05:00:48;;;;;;;1.45;1.00;;;21.60;43.80;;;;;;5039299;28;20477;-62
2023/04/06 05:03:22;;;;;;;1.65;0.93;;;21.60;43.80;;;;;;5037395;28;20176;-61
2023/04/06 05:05:47;;;;;;;1.52;0.90;;;21.50;43.70;;;;;;5040310;28;20535;-62
2023/04/06 05:08:13;;;;;;;1.90;1.00;;;21.60;43.80;;;;;;5040838;28;20032;-62
2023/04/06 05:10:39;;;;;;;1.45;0.80;;;21.60;43.80;;;;;;5039720;28;20036;-62
2023/04/06 05:13:05;;;;;;;1.33;0.80;;;21.60;43.80;;;;;;5036821;28;20033;-62
2023/04/06 05:15:31;;;;;;;1.00;0.85;;;21.60;43.80;;;;;;5040145;28;20390;-62
2023/04/06 05:17:56;;;;;;;1.48;0.90;;;21.60;43.80;;;;;;5037323;28;20131;-62
2023/04/06 05:20:22;;;;;;;1.20;0.80;;;21.50;43.80;;;;;;5037405;28;20040;-63
2023/04/06 05:22:48;;;;;;;0.98;0.77;;;21.50;43.80;;;;;;5043093;28;20465;-63
2023/04/06 05:25:14;;;;;;;1.48;0.82;;;21.50;43.80;;;;;;5038752;28;20108;-63
2023/04/06 05:27:40;;;;;;;1.13;0.82;;;21.50;43.80;;;;;;5039071;28;20084;-62
2023/04/06 05:30:07;;;;;;;0.98;0.73;;;21.50;43.80;;;;;;5040347;28;20034;-63
2023/04/06 05:32:33;;;;;;;1.40;0.90;;;21.50;43.80;;;;;;5042673;28;20025;-62
2023/04/06 05:34:59;;;;;;;1.35;1.00;;;21.50;44.40;;;;;;5039305;28;20041;-62
2023/04/06 05:37:25;;;;;;;1.48;0.93;;;21.50;43.90;;;;;;5040471;28;20385;-63
2023/04/06 05:39:50;;;;;;;2.00;0.93;;;21.50;43.90;;;;;;5037465;28;20025;-62
2023/04/06 05:42:16;;;;;;;1.55;0.90;;;21.50;43.90;;;;;;5038192;28;20075;-62
2023/04/06 05:44:42;;;;;;;1.58;0.98;;;21.50;43.90;;;;;;5041826;28;20028;-62
2023/04/06 05:47:08;;;;;;;1.50;0.98;;;21.50;43.90;;;;;;5039716;28;20391;-63
2023/04/06 05:49:34;;;;;;;0.88;0.70;;;21.50;44.00;;;;;;5038292;28;20024;-63
2023/04/06 05:52:00;;;;;;;1.50;0.90;;;21.50;44.00;;;;;;5039122;28;20044;-63
2023/04/06 05:54:26;;;;;;;1.30;0.80;;;21.50;44.00;;;;;;5038515;28;20386;-63
2023/04/06 05:56:51;;;;;;;1.70;1.00;;;21.50;44.00;;;;;;5039810;28;20025;-63
2023/04/06 05:59:17;;;;;;;0.75;0.75;;;21.40;44.00;;;;;;5041134;28;20451;-63
2023/04/06 06:01:42;;;;;;;1.45;0.90;;;21.40;44.00;;;;;;5038354;28;20037;-63
2023/04/06 06:04:08;;;;;;;1.35;0.80;;;21.40;44.00;;;;;;5039949;28;20362;-63
2023/04/06 06:06:33;;;;;;;1.10;0.80;;;21.40;44.50;;;;;;5039165;28;20049;-63
2023/04/06 06:09:00;;;;;;;1.48;1.00;;;21.40;44.00;;;;;;5037120;28;20040;-62
2023/04/06 06:11:26;;;;;;;1.35;0.90;;;21.40;44.00;;;;;;5038571;28;20031;-62
2023/04/06 06:13:52;;;;;;;1.08;0.88;;;21.40;44.10;;;;;;5038310;28;20493;-62
2023/04/06 06:16:18;;;;;;;1.60;1.13;;;21.40;44.10;;;;;;5035049;28;20028;-63
2023/04/06 06:18:44;;;;;;;0.90;0.73;;;21.40;44.10;;;;;;5033355;28;20036;-63
2023/04/06 06:21:12;;;;;;;1.40;0.90;;;21.40;44.60;;;;;;5037932;28;20021;-62
2023/04/06 06:23:38;;;;;;;1.10;0.80;;;21.40;44.10;;;;;;5036741;28;20094;-63
2023/04/06 06:26:04;;;;;;;1.60;0.80;;;21.40;44.60;;;;;;5036001;28;20512;-62
2023/04/06 06:28:30;;;;;;;1.05;0.82;;;21.40;44.10;;;;;;5037481;28;20060;-63
2023/04/06 06:30:55;;;;;;;1.10;0.80;;;21.40;44.10;;;;;;5042256;28;20025;-62
2023/04/06 06:33:21;;;;;;;1.00;0.82;;;21.40;44.10;;;;;;5040045;28;20589;-63
2023/04/06 06:35:47;;;;;;;1.30;0.80;;;21.40;44.10;;;;;;5042931;28;20369;-63
2023/04/06 06:38:12;;;;;;;1.33;0.93;;;21.40;44.10;;;;;;5041230;28;20034;-63
2023/04/06 06:40:40;;;;;;;1.30;0.90;;;21.40;44.20;;;;;;5047567;28;20211;-62
2023/04/06 06:43:06;;;;;;;1.58;0.90;;;21.40;44.10;;;;;;5040007;28;20382;-62
2023/04/06 06:45:31;;;;;;;1.75;1.00;;;21.30;44.10;;;;;;5039277;28;20029;-63
2023/04/06 06:47:57;;;;;;;0.98;0.80;;;21.30;44.10;;;;;;5043534;28;20021;-63
2023/04/06 06:50:23;;;;;;;1.45;0.93;;;21.40;44.20;;;;;;5042080;28;20030;-62
2023/04/06 06:52:48;;;;;;;1.05;0.82;;;21.30;44.10;;;;;;5042515;28;20404;-62
2023/04/06 06:55:15;;;;;;;1.02;0.80;;;21.30;44.20;;;;;;5039957;28;20044;-63
2023/04/06 06:57:42;;;;;;;1.85;0.90;;;21.30;44.10;;;;;;5042132;28;20039;-63
2023/04/06 07:00:08;;;;;;;1.67;0.90;;;21.30;44.10;;;;;;5041526;28;20021;-62
2023/04/06 07:02:35;;;;;;;1.17;0.80;;;21.30;44.70;;;;;;5044479;28;20287;-62
2023/04/06 07:05:01;;;;;;;2.45;1.05;;;21.30;44.20;;;;;;5043806;28;20025;-62
2023/04/06 07:07:27;;;;;;;1.63;1.00;;;21.30;44.20;;;;;;5044577;28;20036;-63
2023/04/06 07:09:53;;;;;;;1.05;0.80;;;21.30;44.20;;;;;;5041956;28;20071;-62
2023/04/06 07:12:18;;;;;;;1.25;0.90;;;21.30;44.20;;;;;;5043002;28;20025;-62
2023/04/06 07:14:44;;;;;;;1.30;0.90;;;21.30;44.20;;;;;;5042668;28;20025;-63
2023/04/06 07:17:10;;;;;;;1.52;0.90;;;21.30;44.30;;;;;;5044627;28;20046;-62
2023/04/06 07:19:35;;;;;;;1.52;0.90;;;21.30;44.30;;;;;;5041087;28;20021;-62
2023/04/06 07:22:02;;;;;;;1.48;1.00;;;21.30;44.30;;;;;;5041922;28;20128;-62
2023/04/06 07:24:27;;;;;;;1.75;1.08;;;21.30;44.30;;;;;;5041046;28;20021;-63
2023/04/06 07:26:53;;;;;;;1.52;0.90;;;21.30;44.30;;;;;;5042608;28;20066;-62
2023/04/06 07:29:18;;;;;;;1.73;1.00;;;21.30;44.40;;;;;;5043331;28;20473;-63
2023/04/06 07:31:44;;;;;;;1.63;0.95;;;21.30;44.40;;;;;;5044993;28;20120;-62
2023/04/06 07:34:10;;;;;;;2.05;1.00;;;21.20;44.40;;;;;;5045796;28;20410;-62
2023/04/06 07:36:36;;;;;;;1.35;1.00;;;21.20;44.90;;;;;;5040643;28;20040;-62
2023/04/06 07:39:01;;;;;;;1.65;0.95;;;21.20;44.40;;;;;;5042885;28;20041;-63
2023/04/06 07:41:27;;;;;;;2.03;0.90;;;21.20;44.40;;;;;;5042024;28;20025;-62
2023/04/06 07:43:53;;;;;;;1.40;0.90;;;21.20;44.40;;;;;;5041453;28;20076;-62
2023/04/06 07:46:18;;;;;;;1.58;1.00;;;21.20;44.40;;;;;;5041391;28;20108;-62
2023/04/06 07:48:44;;;;;;;1.17;0.88;;;21.20;44.50;;;;;;5042069;28;20489;-62
2023/04/06 07:51:13;;;;;;;0.95;0.80;;;21.20;44.60;;;;;;5044254;28;20076;-62
2023/04/06 07:53:39;;;;;;;1.00;0.90;;;21.20;44.60;;;;;;5045227;28;20029;-62
2023/04/06 07:56:05;;;;;;;1.60;1.00;;;21.20;44.60;;;;;;5040441;28;20099;-62
2023/04/06 07:58:31;;;;;;;1.80;0.90;;;21.20;44.60;;;;;;5039393;28;20110;-62
2023/04/06 08:00:57;;;;;;;1.65;1.00;;;21.20;44.70;;;;;;5042495;28;20021;-62
2023/04/06 08:03:25;;;;;;;1.20;0.90;;;21.20;44.70;;;;;;5042072;28;20025;-62
2023/04/06 08:05:52;;;;;;;1.98;1.02;;;21.20;44.70;;;;;;5040407;28;20035;-62
2023/04/06 08:08:18;;;;;;;1.70;1.10;;;21.20;44.70;;;;;;5038334;28;20087;-62
2023/04/06 08:10:43;;;;;;;1.90;1.00;;;21.20;44.70;;;;;;5041657;28;20017;-61
2023/04/06 08:13:09;;;;;;;1.80;1.08;;;21.20;44.70;;;;;;5041220;28;20077;-62
2023/04/06 08:15:34;;;;;;;1.88;0.95;;;21.20;44.70;;;;;;5038739;28;20033;-62
2023/04/06 08:18:00;;;;;;;1.50;0.90;;;21.20;44.70;;;;;;5041795;28;20116;-62
2023/04/06 08:20:26;;;;;;;1.52;1.02;;;21.20;44.70;;;;;;5041534;28;20371;-63
2023/04/06 08:22:51;;;;;;;1.52;1.10;;;21.20;44.60;;;;;;5041416;28;20029;-62
2023/04/06 08:25:17;;;;;;;2.00;1.15;;;21.10;44.50;;;;;;5037848;28;20108;-62
2023/04/06 08:27:42;;;;;;;1.88;1.20;;;21.20;44.60;;;;;;5040865;28;20064;-62
2023/04/06 08:30:09;;;;;;;2.58;1.27;;;21.20;44.50;;;;;;5042543;28;20037;-63
2023/04/06 08:32:34;;;;;;;2.63;1.40;;;21.10;44.50;;;;;;5040772;28;20120;-63
2023/04/06 08:35:00;;;;;;;2.30;1.40;;;21.10;44.40;;;;;;5038430;28;20124;-62
2023/04/06 08:37:26;;;;;;;3.08;1.30;;;21.10;44.40;;;;;;5040424;28;20036;-63
2023/04/06 08:39:51;;;;;;;3.83;1.42;;;21.10;44.30;;;;;;5043066;28;20374;-62
2023/04/06 08:42:20;;;;;;;2.80;1.40;;;21.20;44.50;;;;;;5039397;28;20028;-62
2023/04/06 08:44:48;;;;;;;3.67;1.42;;;21.10;44.30;;;;;;5042267;28;20025;-63
2023/04/06 08:47:14;;;;;;;2.58;1.50;;;21.20;44.30;;;;;;5041990;28;20101;-62
2023/04/06 08:49:41;;;;;;;2.78;1.60;;;21.10;44.10;;;;;;5042060;28;20108;-62
2023/04/06 08:52:07;;;;;;;2.40;1.30;;;21.20;44.10;;;;;;5036181;28;20022;-62
2023/04/06 08:54:34;;;;;;;3.83;1.50;;;21.10;44.00;;;;;;5037350;28;20393;-62
2023/04/06 08:57:01;;;;;;;2.97;1.40;;;21.10;43.90;;;;;;5037693;28;20098;-62
2023/04/06 08:59:27;;;;;;;3.00;1.63;;;21.10;43.90;;;;;;5039984;28;20092;-63
2023/04/06 09:01:54;;;;;;;2.40;1.40;;;21.10;43.90;;;;;;5044018;28;20104;-62
2023/04/06 09:04:20;;;;;;;2.95;1.52;;;21.10;43.90;;;;;;5040189;28;20029;-63
2023/04/06 09:06:45;;;;;;;3.10;1.67;;;21.10;43.90;;;;;;5038641;28;20361;-63
2023/04/06 09:09:11;;;;;;;2.50;1.35;;;21.10;43.90;;;;;;5039920;28;20409;-62
2023/04/06 09:11:45;;;;;;;2.63;1.42;;;21.10;43.90;;;;;;5036163;28;20025;-63
2023/04/06 09:14:11;;;;;;;3.15;1.50;;;21.10;43.80;;;;;;5037389;28;20037;-63
2023/04/06 09:16:44;;;;;;;3.35;1.67;;;21.10;43.80;;;;;;5040380;28;20382;-63
2023/04/06 09:19:11;;;;;;;3.15;1.58;;;21.10;43.80;;;;;;5042616;28;20052;-63
2023/04/06 09:21:37;;;;;;;4.00;1.90;;;21.10;43.80;;;;;;5039845;28;20366;-63
2023/04/06 09:24:03;;;;;;;3.03;1.80;;;21.10;44.30;;;;;;5044745;28;20115;-63
2023/04/06 09:26:30;;;;;;;3.45;1.83;;;21.10;43.80;;;;;;5039597;28;20032;-63
2023/04/06 09:29:01;;;;;;;2.75;1.50;;;21.10;43.90;;;;;;5036971;28;20136;-62
2023/04/06 09:31:32;;;;;;;3.05;1.75;;;21.10;43.90;;;;;;5038508;28;20026;-63
2023/04/06 09:33:59;;;;;;;4.38;1.60;;;21.10;43.90;;;;;;5039209;28;20033;-62
2023/04/06 09:36:35;;;;;;;2.85;1.63;;;21.10;43.90;;;;;;5039763;28;20537;-63
2023/04/06 09:39:03;;;;;;;3.67;1.77;;;21.10;43.90;;;;;;5035299;28;20037;-63
2023/04/06 09:41:31;;;;;;;5.00;1.65;;;21.10;44.50;;;;;;5031344;28;20033;-63
2023/04/06 09:44:05;;;;;;;2.95;1.65;;;21.10;44.00;;;;;;5072325;28;20084;-62
2023/04/06 09:46:41;;;;;;;2.80;1.50;;;21.10;44.10;;;;;;5040699;28;20059;-63
2023/04/06 09:49:08;;;;;;;3.25;1.50;;;21.10;44.60;;;;;;5038999;28;20025;-63
2023/04/06 09:51:40;;;;;;;3.33;1.55;;;21.10;44.20;;;;;;5040509;28;20037;-63
2023/04/06 09:54:07;;;;;;;3.55;1.52;;;21.10;44.30;;;;;;5042261;28;20436;-63
2023/04/06 09:56:46;;;;;;;2.58;1.60;;;21.10;44.40;;;;;;5037813;28;20017;-63
2023/04/06 09:59:25;;;;;;;3.60;1.87;;;21.10;44.30;;;;;;5038676;28;20382;-63
2023/04/06 10:01:53;;;;;;;2.83;1.60;;;21.10;44.20;;;;;;5037212;28;20450;-63
2023/04/06 10:04:18;;;;;;;2.83;1.60;;;21.10;44.20;;;;;;5038611;28;20649;-63
2023/04/06 10:06:47;;;;;;;3.05;1.70;;;21.10;44.30;;;;;;5037862;28;20018;-63
2023/04/06 10:09:14;;;;;;;3.97;2.10;;;21.10;44.80;;;;;;5037878;28;20048;-63
2023/04/06 10:11:40;;;;;;;3.33;1.70;;;21.10;44.30;;;;;;5038157;28;20033;-63
2023/04/06 10:14:06;;;;;;;4.07;1.77;;;21.10;44.30;;;;;;5039136;28;20068;-63
2023/04/06 10:16:32;;;;;;;2.80;1.60;;;21.10;44.30;;;;;;5039962;28;20094;-63
2023/04/06 10:19:09;;;;;;;2.58;1.60;;;21.10;44.30;;;;;;5037776;28;20029;-63
2023/04/06 10:21:36;;;;;;;3.30;1.70;;;21.10;44.10;;;;;;5036569;28;20469;-62
2023/04/06 10:24:06;;;;;;;2.40;1.35;;;21.10;44.10;;;;;;5039548;28;20105;-63
2023/04/06 10:26:32;;;;;;;3.17;1.50;;;21.10;44.20;;;;;;5036445;28;20038;-63
2023/04/06 10:29:03;;;;;;;2.25;1.30;;;21.10;44.20;;;;;;5039751;28;20040;-64
2023/04/06 10:31:29;;;;;;;2.35;1.52;;;21.10;44.20;;;;;;5039367;28;20370;-63
2023/04/06 10:34:02;;;;;;;2.55;1.35;;;21.10;44.30;;;;;;5039286;28;20029;-64
2023/04/06 10:36:33;;;;;;;3.80;1.55;;;21.10;44.30;;;;;;5038072;28;20065;-63
2023/04/06 10:39:00;;;;;;;2.25;1.27;;;21.10;44.40;;;;;;5038621;28;20108;-63
2023/04/06 10:41:41;;;;;;;3.42;1.50;;;21.10;44.50;;;;;;5038126;28;20060;-63
2023/04/06 10:44:06;;;;;;;2.42;1.40;;;21.10;44.50;;;;;;5038648;28;20117;-64
2023/04/06 10:46:33;;;;;;;3.33;1.45;;;21.20;44.60;;;;;;5037982;28;20064;-64
2023/04/06 10:49:11;;;;;;;1.95;1.27;;;21.10;44.60;;;;;;5038535;28;20034;-63
2023/04/06 10:51:38;;;;;;;2.03;1.30;;;21.10;44.60;;;;;;5040555;28;20420;-64
2023/04/06 10:54:09;;;;;;;2.65;1.38;;;21.10;44.60;;;;;;5036474;28;20083;-64
2023/04/06 10:56:38;;;;;;;4.28;1.42;;;21.10;44.70;;;;;;5034793;28;20117;-64
2023/04/06 10:59:05;;;;;;;2.08;1.30;;;21.20;44.90;;;;;;5039942;28;20029;-64
2023/04/06 11:01:31;;;;;;;4.30;1.67;;;21.20;44.90;;;;;;5041729;28;20135;-64
2023/04/06 11:04:00;;;;;;;3.28;1.63;;;21.10;44.90;;;;;;5036787;28;20476;-64
2023/04/06 11:06:29;;;;;;;2.45;1.30;;;21.20;45.00;;;;;;5041806;28;20029;-64
2023/04/06 11:08:55;;;;;;;3.22;1.50;;;21.10;45.00;;;;;;5040950;28;20036;-63
2023/04/06 11:11:23;;;;;;;2.60;1.48;;;21.20;45.10;;;;;;5037402;28;20659;-63
2023/04/06 11:13:59;;;;;;;2.80;1.50;;;21.20;45.10;;;;;;5037313;28;20381;-63
2023/04/06 11:16:30;;;;;;;2.95;1.50;;;21.20;45.10;;;;;;5041620;28;20041;-64
2023/04/06 11:18:59;;;;;;;2.85;1.35;;;21.20;45.20;;;;;;5043590;28;20515;-63
2023/04/06 11:21:51;;;;;;;3.90;1.50;;;21.20;45.30;;;;;;5042263;28;20021;-63
2023/04/06 11:24:24;;;;;;;3.88;1.50;;;21.20;45.30;;;;;;5038818;28;20033;-64
2023/04/06 11:26:51;;;;;;;3.30;1.52;;;21.20;45.90;;;;;;5039352;28;20131;-63
2023/04/06 11:29:18;;;;;;;2.65;1.30;;;21.20;45.40;;;;;;5041738;28;20033;-63
2023/04/06 11:31:48;;;;;;;4.05;1.52;;;21.20;45.40;;;;;;5039656;28;20473;-63
2023/04/06 11:34:22;;;;;;;3.67;1.60;;;21.20;45.50;;;;;;5044320;28;20067;-64
2023/04/06 11:36:53;;;;;;;3.38;1.58;;;21.20;45.50;;;;;;5042908;28;20448;-63
2023/04/06 11:39:20;;;;;;;3.80;1.80;;;21.20;45.50;;;;;;5041164;28;20025;-64
2023/04/06 11:41:55;;;;;;;3.05;1.50;;;21.20;45.50;;;;;;5042645;28;20028;-63
2023/04/06 11:44:34;;;;;;;3.75;1.70;;;21.20;45.60;;;;;;5040740;28;20032;-63
2023/04/06 11:47:05;;;;;;;4.15;1.90;;;21.20;45.60;;;;;;5042942;28;20025;-63
2023/04/06 11:49:32;;;;;;;3.53;1.60;;;21.20;45.70;;;;;;5041561;28;20037;-63
2023/04/06 11:51:59;;;;;;;4.38;1.77;;;21.30;45.80;;;;;;5042070;28;20079;-63
2023/04/06 11:54:35;;;;;;;3.08;1.67;;;21.30;45.90;;;;;;5041284;28;20017;-63
2023/04/06 11:57:02;;;;;;;3.65;1.40;;;21.40;46.00;;;;;;5041066;28;20025;-63
2023/04/06 11:59:28;;;;;;;2.75;1.40;;;21.40;45.80;;;;;;5042318;28;20021;-62
2023/04/06 12:01:54;;;;;;;3.58;1.50;;;21.40;45.80;;;;;;5042844;28;20049;-63
2023/04/06 12:04:20;;;;;;;3.60;1.50;;;21.40;46.30;;;;;;5042844;28;20375;-63
2023/04/06 12:06:46;;;;;;;2.63;1.40;;;21.50;45.80;;;;;;5041699;28;20030;-62
2023/04/06 12:09:12;;;;;;;3.35;1.33;;;21.50;45.80;;;;;;5040901;28;20035;-63
2023/04/06 12:11:37;;;;;;;3.75;1.52;;;21.50;45.70;;;;;;5043388;28;20196;-63
2023/04/06 12:14:04;;;;;;;3.65;1.52;;;21.60;45.70;;;;;;5042359;28;20028;-62
2023/04/06 12:16:31;;;;;;;3.22;1.45;;;21.60;45.60;;;;;;5040731;28;20033;-63
2023/04/06 12:18:56;;;;;;;4.68;1.40;;;21.60;45.60;;;;;;5041240;28;20596;-63
2023/04/06 12:21:22;;;;;;;3.97;1.50;;;21.70;45.70;;;;;;5036264;28;20029;-63
2023/04/06 12:23:48;;;;;;;3.05;1.40;;;21.70;46.10;;;;;;5041355;28;20025;-62
2023/04/06 12:26:13;;;;;;;3.42;1.67;;;21.70;45.50;;;;;;5036512;28;20099;-62
2023/04/06 12:28:39;;;;;;;2.97;1.70;;;21.80;45.50;;;;;;5040355;28;20082;-63
2023/04/06 12:31:05;;;;;;;3.08;1.67;;;21.80;45.40;;;;;;5043217;28;20445;-63
2023/04/06 12:33:30;;;;;;;4.00;1.70;;;21.80;45.30;;;;;;5041284;28;20060;-63
2023/04/06 12:35:56;;;;;;;3.30;1.50;;;21.90;45.30;;;;;;5036963;28;20029;-62
2023/04/06 12:38:22;;;;;;;3.08;1.45;;;21.90;45.30;;;;;;5040469;28;20029;-62
2023/04/06 12:40:47;;;;;;;3.83;1.70;;;22.00;45.80;;;;;;5040041;28;20480;-62
2023/04/06 12:43:13;;;;;;;2.92;1.40;;;22.00;45.20;;;;;;5040309;28;20465;-63
2023/04/06 12:45:40;;;;;;;3.83;1.60;;;22.00;45.20;;;;;;5040923;28;20029;-63